Time;durP1;ratioP1;P1;durP2;ratioP2;P2;SDS_P1;SDS_P2;PMS_P1;PMS_P2;Temp;Humidity;BMP_temperature;BMP_pressure;BME280_temperature;BME280_humidity;BME280_pressure;Samples;Min_cycle;Max_cycle;Signal;HPM_P1;HPM_P2
2022/05/09 00:00:29;;;;;;;;;;;6.40;99.90;;;;;;5054400;28;19987;-70
2022/05/09 00:02:58;;;;;;;;;;;6.40;99.90;;;;;;5054694;28;19927;-70
2022/05/09 00:05:25;;;;;;;;;;;6.40;99.90;;;;;;5054151;28;20283;-70
2022/05/09 00:07:51;;;;;;;;;;;6.40;99.90;;;;;;5051622;28;19924;-71
2022/05/09 00:10:18;;;;;;;;;;;6.40;99.90;;;;;;5054230;28;19964;-70
2022/05/09 00:12:44;;;;;;;;;;;6.40;99.90;;;;;;5054079;28;20862;-70
2022/05/09 00:15:10;;;;;;;;;;;6.30;99.90;;;;;;5053822;28;19966;-70
2022/05/09 00:17:36;;;;;;;;;;;6.30;99.90;;;;;;5053389;28;19943;-70
2022/05/09 00:20:01;;;;;;;;;;;6.90;99.90;;;;;;5053578;28;19967;-71
2022/05/09 00:22:27;;;;;;;;;;;6.30;99.90;;;;;;5052832;28;19921;-70
2022/05/09 00:24:52;;;;;;;;;;;6.20;99.90;;;;;;5054734;28;19921;-70
2022/05/09 00:27:18;;;;;;;;;;;6.20;99.90;;;;;;5053379;28;20442;-70
2022/05/09 00:29:46;;;;;;;;;;;6.20;99.90;;;;;;5052854;28;19956;-70
2022/05/09 00:32:12;;;;;;;;;;;6.20;99.90;;;;;;5053851;28;20006;-70
2022/05/09 00:34:37;;;;;;;;;;;6.20;99.90;;;;;;5052426;28;19928;-70
2022/05/09 00:37:03;;;;;;;;;;;6.20;99.90;;;;;;5053843;28;19960;-70
2022/05/09 00:39:29;;;;;;;;;;;6.20;99.90;;;;;;5054412;28;19921;-70
2022/05/09 00:42:04;;;;;;;;;;;6.20;99.90;;;;;;5052787;28;19943;-70
2022/05/09 00:44:30;;;;;;;;;;;6.10;99.90;;;;;;5051905;28;19924;-70
2022/05/09 00:58:50;;;;;;;;;;;6.00;99.90;;;;;;5063508;22;19928;-70
2022/05/09 01:01:16;;;;;;;;;;;6.30;99.90;;;;;;5008135;28;19965;-70
2022/05/09 01:03:49;;;;;;;;;;;6.00;99.90;;;;;;4990439;28;19996;-70
2022/05/09 01:06:15;;;;;;;;;;;5.90;99.90;;;;;;4989253;28;20368;-70
2022/05/09 01:08:41;;;;;;;;;;;5.90;99.90;;;;;;4992514;28;19921;-70
2022/05/09 01:11:09;;;;;;;;;;;5.90;99.90;;;;;;5011368;28;19965;-69
2022/05/09 01:13:36;;;;;;;;;;;5.80;99.90;;;;;;5010388;28;19922;-70
2022/05/09 01:16:03;;;;;;;;;;;5.80;99.90;;;;;;5011229;28;19933;-70
2022/05/09 01:18:28;;;;;;;;;;;5.80;99.90;;;;;;5012364;28;19995;-70
2022/05/09 01:20:54;;;;;;;;;;;5.80;99.90;;;;;;5016278;28;19969;-70
2022/05/09 01:23:20;;;;;;;;;;;5.00;99.90;;;;;;5015518;28;19921;-69
2022/05/09 01:25:45;;;;;;;;;;;5.70;99.90;;;;;;5014857;28;20414;-70
2022/05/09 01:28:11;;;;;;;;;;;5.80;99.90;;;;;;5014050;28;19928;-70
2022/05/09 01:30:49;;;;;;;;;;;5.70;99.90;;;;;;5014659;28;19922;-70
2022/05/09 01:33:20;;;;;;;;;;;5.70;99.90;;;;;;5013392;28;19926;-70
2022/05/09 01:35:51;;;;;;;;;;;5.60;99.90;;;;;;5015838;28;20308;-70
2022/05/09 01:38:27;;;;;;;;;;;5.60;99.90;;;;;;5013909;28;19928;-70
2022/05/09 01:40:52;;;;;;;;;;;5.60;99.90;;;;;;5013273;28;19932;-70
2022/05/09 01:43:51;;;;;;;;;;;5.60;99.90;;;;;;5015174;28;19925;-70
2022/05/09 01:46:19;;;;;;;;;;;5.50;99.90;;;;;;4992606;28;19922;-70
2022/05/09 01:51:29;;;;;;;;;;;5.70;99.90;;;;;;5014438;28;19921;-70
2022/05/09 01:53:54;;;;;;;;;;;5.50;99.90;;;;;;5014350;28;19947;-70
2022/05/09 01:56:21;;;;;;;;;;;5.50;99.90;;;;;;5014950;28;20009;-70
2022/05/09 01:58:47;;;;;;;;;;;5.50;99.90;;;;;;5014583;28;19921;-70
2022/05/09 02:01:12;;;;;;;;;;;5.40;99.90;;;;;;5014183;28;19925;-70
2022/05/09 02:03:38;;;;;;;;;;;5.40;99.90;;;;;;5015306;28;20442;-70
2022/05/09 02:06:03;;;;;;;;;;;6.60;99.90;;;;;;5016530;28;20052;-70
2022/05/09 02:08:29;;;;;;;;;;;5.40;99.90;;;;;;5014039;28;19957;-70
2022/05/09 02:10:55;;;;;;;;;;;5.30;99.90;;;;;;5015613;28;20372;-70
2022/05/09 02:13:21;;;;;;;;;;;5.30;99.90;;;;;;5015012;28;19922;-70
2022/05/09 02:15:47;;;;;;;;;;;5.30;99.90;;;;;;5014284;28;20327;-70
2022/05/09 02:18:12;;;;;;;;;;;5.30;99.90;;;;;;5015498;28;20019;-70
2022/05/09 02:20:38;;;;;;;;;;;5.30;99.90;;;;;;5015347;28;20308;-70
2022/05/09 02:23:04;;;;;;;;;;;5.30;99.90;;;;;;5014738;28;19921;-70
2022/05/09 02:25:30;;;;;;;;;;;5.30;99.90;;;;;;5014340;28;19964;-70
2022/05/09 02:27:56;;;;;;;;;;;5.30;99.90;;;;;;5013850;28;19925;-70
2022/05/09 02:30:25;;;;;;;;;;;5.30;99.90;;;;;;5013570;28;19925;-70
2022/05/09 02:32:52;;;;;;;;;;;5.20;99.90;;;;;;5013337;28;19921;-70
2022/05/09 02:35:18;;;;;;;;;;;5.30;99.90;;;;;;5013062;28;19921;-70
2022/05/09 02:37:44;;;;;;;;;;;5.20;99.90;;;;;;5012052;28;19948;-70
2022/05/09 02:40:10;;;;;;;;;;;5.20;99.90;;;;;;5012449;28;19921;-70
2022/05/09 02:42:36;;;;;;;;;;;5.20;99.90;;;;;;5013909;28;19917;-70
2022/05/09 02:45:03;;;;;;;;;;;5.10;99.90;;;;;;5012960;28;19929;-70
2022/05/09 02:47:28;;;;;;;;;;;5.10;99.90;;;;;;5014996;28;20284;-70
2022/05/09 02:49:54;;;;;;;;;;;5.10;99.90;;;;;;5014818;28;19954;-69
2022/05/09 02:52:19;;;;;;;;;;;5.10;99.90;;;;;;5013767;28;20311;-69
2022/05/09 02:54:45;;;;;;;;;;;5.00;99.90;;;;;;5013769;28;19936;-70
2022/05/09 02:57:11;;;;;;;;;;;5.00;99.90;;;;;;5011129;28;20316;-70
2022/05/09 02:59:36;;;;;;;;;;;5.00;99.90;;;;;;5012996;28;20000;-70
2022/05/09 03:02:02;;;;;;;;;;;5.00;99.90;;;;;;5014769;28;19952;-70
2022/05/09 03:04:40;;;;;;;;;;;5.00;99.90;;;;;;5012829;28;19929;-71
2022/05/09 03:07:11;;;;;;;;;;;4.90;99.90;;;;;;5012680;28;19929;-70
2022/05/09 03:09:37;;;;;;;;;;;4.90;99.90;;;;;;5014278;28;19917;-69
2022/05/09 03:12:04;;;;;;;;;;;4.90;99.90;;;;;;5013755;28;19933;-70
2022/05/09 03:14:33;;;;;;;;;;;4.90;99.90;;;;;;5013476;28;20368;-70
2022/05/09 03:16:59;;;;;;;;;;;4.90;99.90;;;;;;5012606;28;20012;-70
2022/05/09 03:19:25;;;;;;;;;;;4.90;99.90;;;;;;5013793;28;20387;-70
2022/05/09 03:21:51;;;;;;;;;;;4.90;99.90;;;;;;5014496;28;19921;-70
2022/05/09 03:24:16;;;;;;;;;;;4.90;99.90;;;;;;5012282;28;20008;-70
2022/05/09 03:26:42;;;;;;;;;;;4.80;99.90;;;;;;5013059;28;19925;-70
2022/05/09 03:29:07;;;;;;;;;;;4.80;99.90;;;;;;5014582;28;19921;-70
2022/05/09 03:31:33;;;;;;;;;;;4.80;99.90;;;;;;5013920;28;19922;-70
2022/05/09 03:33:58;;;;;;;;;;;4.80;99.90;;;;;;5011109;28;19922;-70
2022/05/09 03:36:24;;;;;;;;;;;4.80;99.90;;;;;;5013267;28;19976;-70
2022/05/09 03:38:49;;;;;;;;;;;4.80;99.90;;;;;;5011543;28;19925;-69
2022/05/09 03:41:15;;;;;;;;;;;4.80;99.90;;;;;;5010962;28;19998;-70
2022/05/09 03:43:43;;;;;;;;;;;4.90;99.90;;;;;;5012256;28;19928;-70
2022/05/09 03:46:10;;;;;;;;;;;4.90;99.90;;;;;;5012277;28;20016;-70
2022/05/09 03:48:38;;;;;;;;;;;4.80;99.90;;;;;;5013991;28;20372;-70
2022/05/09 03:51:04;;;;;;;;;;;4.80;99.90;;;;;;5012581;28;20380;-70
2022/05/09 03:53:30;;;;;;;;;;;4.80;99.90;;;;;;5012619;28;19921;-71
2022/05/09 03:55:56;;;;;;;;;;;4.80;99.90;;;;;;5014598;28;19927;-70
2022/05/09 03:58:21;;;;;;;;;;;4.80;99.90;;;;;;5012834;28;19928;-70
2022/05/09 04:00:47;;;;;;;;;;;4.80;99.90;;;;;;5012133;28;19921;-70
2022/05/09 04:03:13;;;;;;;;;;;4.80;99.90;;;;;;5013709;28;19957;-70
2022/05/09 04:05:38;;;;;;;;;;;4.80;99.90;;;;;;5014348;28;20272;-70
2022/05/09 04:08:08;;;;;;;;;;;5.70;99.90;;;;;;5011650;28;19921;-70
2022/05/09 04:10:35;;;;;;;;;;;4.80;99.90;;;;;;5013728;28;19921;-70
2022/05/09 04:13:00;;;;;;;;;;;4.90;99.90;;;;;;5013721;28;20311;-70
2022/05/09 04:18:11;;;;;;;;;;;4.80;99.90;;;;;;5012699;28;19921;-69
2022/05/09 04:20:37;;;;;;;;;;;4.80;99.90;;;;;;5012570;28;20013;-70
2022/05/09 04:23:03;;;;;;;;;;;4.80;99.90;;;;;;5012617;28;20351;-71
2022/05/09 04:25:31;;;;;;;;;;;4.80;99.90;;;;;;5012312;28;19968;-69
2022/05/09 04:28:02;;;;;;;;;;;4.80;99.90;;;;;;5012397;28;19921;-71
2022/05/09 04:30:28;;;;;;;;;;;5.70;99.90;;;;;;5012717;28;19925;-71
2022/05/09 04:32:53;;;;;;;;;;;4.80;99.90;;;;;;5012412;28;20017;-71
2022/05/09 04:35:20;;;;;;;;;;;4.90;99.90;;;;;;5010048;28;19988;-70
2022/05/09 04:37:47;;;;;;;;;;;4.90;99.90;;;;;;5011436;28;19925;-67
2022/05/09 04:40:18;;;;;;;;;;;4.90;99.90;;;;;;5029587;28;19925;-71
2022/05/09 04:42:43;;;;;;;;;;;5.00;99.90;;;;;;5023312;28;19929;-71
2022/05/09 04:45:10;;;;;;;;;;;5.50;99.90;;;;;;5012022;28;19921;-71
2022/05/09 04:47:36;;;;;;;;;;;5.00;99.90;;;;;;5014036;28;19921;-71
2022/05/09 04:50:02;;;;;;;;;;;5.10;99.90;;;;;;5013979;28;19928;-72
2022/05/09 04:52:28;;;;;;;;;;;5.10;99.90;;;;;;5013681;28;19925;-72
2022/05/09 04:54:57;;;;;;;;;;;5.20;99.90;;;;;;5017393;28;19944;-71
2022/05/09 04:57:22;;;;;;;;;;;5.30;99.90;;;;;;5015068;28;19925;-70
2022/05/09 04:59:50;;;;;;;;;;;5.30;99.90;;;;;;5017436;28;19921;-73
2022/05/09 05:02:19;;;;;;;;;;;5.40;99.90;;;;;;5018608;28;19940;-76
2022/05/09 05:04:44;;;;;;;;;;;5.50;99.90;;;;;;5016036;28;20384;-72
2022/05/09 05:07:10;;;;;;;;;;;5.50;99.90;;;;;;5016728;28;20364;-71
2022/05/09 05:09:35;;;;;;;;;;;5.60;99.90;;;;;;5016126;28;19925;-72
2022/05/09 05:12:01;;;;;;;;;;;5.60;99.90;;;;;;5015252;28;19928;-70
2022/05/09 05:14:27;;;;;;;;;;;6.10;99.90;;;;;;5017019;28;20293;-71
2022/05/09 05:16:59;;;;;;;;;;;5.80;99.90;;;;;;5016127;28;20261;-71
2022/05/09 05:19:24;;;;;;;;;;;5.80;99.90;;;;;;5014859;28;20372;-69
2022/05/09 05:21:50;;;;;;;;;;;5.90;99.90;;;;;;5015590;28;19921;-69
2022/05/09 05:24:15;;;;;;;;;;;6.00;99.90;;;;;;5013833;28;20008;-68
2022/05/09 05:26:44;;;;;;;;;;;6.00;99.90;;;;;;5014953;28;19922;-71
2022/05/09 05:29:10;;;;;;;;;;;6.10;99.90;;;;;;5013949;28;19936;-72
2022/05/09 05:31:38;;;;;;;;;;;6.20;99.90;;;;;;5013533;28;19929;-70
2022/05/09 05:34:07;;;;;;;;;;;6.30;99.90;;;;;;5013344;28;19921;-71
2022/05/09 05:36:32;;;;;;;;;;;6.40;99.90;;;;;;5012468;28;19933;-70
2022/05/09 05:38:58;;;;;;;;;;;6.50;99.90;;;;;;5014586;28;20339;-75
2022/05/09 05:41:24;;;;;;;;;;;6.50;99.90;;;;;;5014231;28;20415;-75
2022/05/09 05:43:49;;;;;;;;;;;6.60;99.90;;;;;;5029436;28;19928;-76
2022/05/09 05:46:15;;;;;;;;;;;6.70;99.90;;;;;;5024604;28;19979;-76
2022/05/09 05:48:46;;;;;;;;;;;6.80;99.90;;;;;;5015063;28;19921;-76
2022/05/09 05:51:14;;;;;;;;;;;6.90;99.90;;;;;;5013324;28;19929;-75
2022/05/09 05:53:40;;;;;;;;;;;7.10;99.90;;;;;;5014129;28;19971;-76
2022/05/09 05:56:06;;;;;;;;;;;7.20;99.90;;;;;;5014319;28;19922;-76
2022/05/09 05:58:31;;;;;;;;;;;7.30;99.90;;;;;;5015645;28;19971;-76
2022/05/09 06:00:57;;;;;;;;;;;7.40;99.90;;;;;;5016325;28;20334;-75
2022/05/09 06:03:22;;;;;;;;;;;7.50;99.90;;;;;;5014402;28;19978;-75
2022/05/09 06:05:48;;;;;;;;;;;7.60;99.90;;;;;;5016079;28;19945;-75
2022/05/09 06:08:14;;;;;;;;;;;7.90;99.90;;;;;;5016557;28;19925;-76
2022/05/09 06:10:47;;;;;;;;;;;7.90;99.90;;;;;;5017852;28;20023;-75
2022/05/09 06:13:15;;;;;;;;;;;8.00;99.90;;;;;;5015358;28;19926;-76
2022/05/09 06:15:44;;;;;;;;;;;8.10;99.90;;;;;;5014292;28;20353;-72
2022/05/09 06:18:17;;;;;;;;;;;8.20;99.90;;;;;;5014706;28;20020;-70
2022/05/09 06:20:43;;;;;;;;;;;8.40;99.90;;;;;;5014914;28;19932;-74
2022/05/09 06:23:10;;;;;;;;;;;8.50;99.90;;;;;;5023446;28;19921;-72
2022/05/09 06:25:35;;;;;;;;;;;8.60;99.90;;;;;;5034002;28;20390;-75
2022/05/09 06:28:05;;;;;;;;;;;8.80;99.90;;;;;;5035632;28;19964;-73
2022/05/09 06:30:30;;;;;;;;;;;8.90;99.90;;;;;;5018006;28;19929;-72
2022/05/09 06:32:56;;;;;;;;;;;9.10;99.90;;;;;;5014961;28;20288;-71
2022/05/09 06:35:26;;;;;;;;;;;9.20;99.90;;;;;;5013019;28;19922;-72
2022/05/09 06:38:02;;;;;;;;;;;9.30;99.90;;;;;;5013607;28;20028;-71
2022/05/09 06:40:29;;;;;;;;;;;9.50;99.90;;;;;;5014055;28;19925;-71
2022/05/09 06:42:56;;;;;;;;;;;9.70;99.90;;;;;;5015759;28;19917;-71
2022/05/09 06:45:23;;;;;;;;;;;9.80;99.90;;;;;;5014069;28;20014;-71
2022/05/09 06:47:50;;;;;;;;;;;10.00;99.90;;;;;;5015625;28;20394;-71
2022/05/09 06:50:17;;;;;;;;;;;10.10;99.90;;;;;;5014220;28;19925;-71
2022/05/09 06:52:43;;;;;;;;;;;10.20;99.90;;;;;;5015416;28;19936;-71
2022/05/09 06:55:09;;;;;;;;;;;10.30;99.90;;;;;;5014416;28;19921;-71
2022/05/09 06:57:42;;;;;;;;;;;10.40;99.90;;;;;;5014403;28;19964;-71
2022/05/09 07:00:09;;;;;;;;;;;10.60;99.90;;;;;;5014064;28;19921;-71
2022/05/09 07:02:35;;;;;;;;;;;10.60;99.90;;;;;;5014119;28;19928;-71
2022/05/09 07:05:05;;;;;;;;;;;10.70;99.90;;;;;;5013603;28;19925;-71
2022/05/09 07:07:30;;;;;;;;;;;10.90;99.90;;;;;;5014015;28;19921;-71
2022/05/09 07:09:56;;;;;;;;;;;11.00;99.90;;;;;;5016051;28;19928;-71
2022/05/09 07:12:21;;;;;;;;;;;11.10;99.90;;;;;;5012893;28;20036;-71
2022/05/09 07:14:47;;;;;;;;;;;11.20;99.90;;;;;;4994350;28;19921;-70
2022/05/09 07:17:12;;;;;;;;;;;11.40;99.90;;;;;;4992748;28;19925;-71
2022/05/09 07:19:38;;;;;;;;;;;11.50;99.90;;;;;;5010437;28;19925;-71
2022/05/09 07:22:03;;;;;;;;;;;11.60;99.90;;;;;;5014046;28;19921;-71
2022/05/09 07:24:29;;;;;;;;;;;11.90;99.90;;;;;;5011722;28;19921;-71
2022/05/09 07:26:54;;;;;;;;;;;12.20;99.90;;;;;;5020985;28;19921;-71
2022/05/09 07:29:20;;;;;;;;;;;12.90;99.90;;;;;;5034289;28;19928;-71
2022/05/09 07:31:48;;;;;;;;;;;14.10;99.90;;;;;;5029831;28;19925;-72
2022/05/09 07:34:14;;;;;;;;;;;15.10;99.90;;;;;;5014548;28;19922;-72
2022/05/09 07:36:40;;;;;;;;;;;16.30;99.90;;;;;;5014538;28;19922;-71
2022/05/09 07:39:07;;;;;;;;;;;17.00;99.90;;;;;;4995749;28;20284;-72
2022/05/09 07:41:32;;;;;;;;;;;17.70;99.90;;;;;;5014242;28;19932;-72
2022/05/09 07:43:58;;;;;;;;;;;18.40;99.90;;;;;;5014799;28;19917;-71
2022/05/09 07:46:23;;;;;;;;;;;18.90;99.90;;;;;;5014569;28;19921;-71
2022/05/09 07:48:49;;;;;;;;;;;19.60;99.40;;;;;;5013877;28;19922;-71
2022/05/09 07:51:18;;;;;;;;;;;19.90;97.10;;;;;;5014970;28;19940;-70
2022/05/09 07:53:43;;;;;;;;;;;20.40;98.10;;;;;;5011524;28;20414;-71
2022/05/09 07:56:09;;;;;;;;;;;20.40;96.60;;;;;;5013347;28;19967;-71
2022/05/09 07:58:35;;;;;;;;;;;20.90;96.80;;;;;;5016688;28;19996;-71
2022/05/09 08:01:02;;;;;;;;;;;21.40;95.10;;;;;;5029586;28;19936;-71
2022/05/09 08:03:29;;;;;;;;;;;21.70;95.50;;;;;;5013320;28;20104;-71
2022/05/09 08:05:56;;;;;;;;;;;21.90;93.50;;;;;;5013177;28;19921;-72
2022/05/09 08:08:22;;;;;;;;;;;22.20;93.10;;;;;;5011689;28;19921;-70
2022/05/09 08:10:48;;;;;;;;;;;22.50;93.90;;;;;;5013320;28;19917;-71
2022/05/09 08:13:14;;;;;;;;;;;22.90;91.90;;;;;;5012830;28;20368;-71
2022/05/09 08:15:40;;;;;;;;;;;22.70;91.10;;;;;;5013387;28;19921;-73
2022/05/09 08:18:06;;;;;;;;;;;23.20;91.20;;;;;;5012876;28;20301;-71
2022/05/09 08:20:34;;;;;;;;;;;23.30;90.90;;;;;;5013934;28;19929;-71
2022/05/09 08:23:06;;;;;;;;;;;23.50;90.60;;;;;;5014763;28;19925;-71
2022/05/09 08:25:34;;;;;;;;;;;23.90;89.70;;;;;;5014311;28;20603;-72
2022/05/09 08:28:01;;;;;;;;;;;24.30;87.10;;;;;;5006868;28;19922;-72
2022/05/09 08:30:32;;;;;;;;;;;24.20;86.50;;;;;;5017364;28;20230;-71
2022/05/09 08:32:58;;;;;;;;;;;24.60;86.20;;;;;;5018586;28;19976;-70
2022/05/09 08:35:26;;;;;;;;;;;24.90;83.30;;;;;;5018151;28;19921;-71
2022/05/09 08:37:52;;;;;;;;;;;25.00;83.10;;;;;;5017098;28;19993;-71
2022/05/09 08:40:20;;;;;;;;;;;25.10;83.60;;;;;;5016964;28;19926;-71
2022/05/09 08:42:52;;;;;;;;;;;25.40;84.20;;;;;;5016568;28;19929;-70
2022/05/09 08:45:35;;;;;;;;;;;25.80;81.60;;;;;;5015868;28;19921;-71
2022/05/09 08:48:00;;;;;;;;;;;25.20;81.80;;;;;;5015997;28;19925;-71
2022/05/09 08:50:46;;;;;;;;;;;25.30;79.30;;;;;;5016906;28;19928;-71
2022/05/09 08:53:16;;;;;;;;;;;25.20;80.30;;;;;;5016057;28;19928;-71
2022/05/09 08:55:42;;;;;;;;;;;25.70;77.90;;;;;;5015571;28;19921;-70
2022/05/09 08:58:14;;;;;;;;;;;25.70;77.10;;;;;;5016485;28;19922;-71
2022/05/09 09:00:43;;;;;;;;;;;25.70;76.80;;;;;;5052860;28;19975;-70
2022/05/09 09:03:18;;;;;;;;;;;25.80;78.60;;;;;;5037970;28;19956;-71
2022/05/09 09:05:49;;;;;;;;;;;26.00;78.00;;;;;;5055370;28;19942;-70
2022/05/09 09:08:20;;;;;;;;;;;26.10;75.10;;;;;;5018658;28;19941;-70
2022/05/09 09:11:15;;;;;;;;;;;26.20;74.10;;;;;;5021486;28;20431;-70
2022/05/09 09:13:48;;;;;;;;;;;25.70;73.90;;;;;;5019640;28;19960;-70
2022/05/09 09:16:19;;;;;;;;;;;25.40;73.10;;;;;;5038103;28;19967;-71
2022/05/09 09:19:05;;;;;;;;;;;25.50;74.60;;;;;;5037668;28;19924;-71
2022/05/09 09:21:45;;;;;;;;;;;25.70;72.00;;;;;;5057046;28;20306;-71
2022/05/09 09:24:32;;;;;;;;;;;25.40;69.40;;;;;;5040430;28;19920;-70
2022/05/09 09:27:06;;;;;;;;;;;25.20;71.20;;;;;;5018269;28;19928;-70
2022/05/09 09:29:54;;;;;;;;;;;25.10;71.70;;;;;;5037256;28;19925;-70
2022/05/09 09:32:23;;;;;;;;;;;25.40;69.50;;;;;;5017908;28;19925;-70
2022/05/09 09:34:55;;;;;;;;;;;25.30;70.50;;;;;;5037048;28;19928;-70
2022/05/09 09:37:40;;;;;;;;;;;25.50;67.80;;;;;;5026178;28;20372;-70
2022/05/09 09:40:07;;;;;;;;;;;25.30;67.80;;;;;;5032416;28;19928;-70
2022/05/09 09:42:33;;;;;;;;;;;25.40;67.30;;;;;;5017737;28;19917;-70
2022/05/09 09:45:00;;;;;;;;;;;25.30;66.90;;;;;;5036313;28;19927;-71
2022/05/09 09:47:27;;;;;;;;;;;25.40;67.10;;;;;;5038393;28;19920;-70
2022/05/09 09:50:13;;;;;;;;;;;25.20;68.30;;;;;;5036298;28;20391;-71
2022/05/09 09:52:41;;;;;;;;;;;25.50;65.80;;;;;;5055532;28;19920;-70
2022/05/09 09:55:09;;;;;;;;;;;25.50;63.80;;;;;;5055788;28;19916;-70
2022/05/09 09:57:36;;;;;;;;;;;25.60;64.30;;;;;;5055484;28;20363;-70
2022/05/09 10:00:13;;;;;;;;;;;25.50;64.50;;;;;;5055326;28;19921;-70
2022/05/09 10:02:39;;;;;;;;;;;25.70;66.50;;;;;;5035699;28;19960;-70
2022/05/09 10:05:10;;;;;;;;;;;26.20;64.60;;;;;;5046275;28;19964;-70
2022/05/09 10:07:39;;;;;;;;;;;26.30;63.20;;;;;;5053890;28;20015;-70
2022/05/09 10:10:15;;;;;;;;;;;26.40;65.20;;;;;;5037047;28;19921;-70
2022/05/09 10:12:46;;;;;;;;;;;26.30;66.30;;;;;;5037423;28;19927;-69
2022/05/09 10:15:24;;;;;;;;;;;26.50;63.50;;;;;;5055600;28;20076;-70
2022/05/09 10:17:51;;;;;;;;;;;26.80;60.80;;;;;;5029316;28;20406;-70
2022/05/09 10:20:27;;;;;;;;;;;26.40;60.50;;;;;;5017726;28;19905;-71
2022/05/09 10:26:25;;;;;;;;;;;26.40;63.30;;;;;;5006122;28;19925;-72
2022/05/09 10:28:55;;;;;;;;;;;26.00;63.20;;;;;;5035073;28;20367;-70
2022/05/09 10:31:26;;;;;;;;;;;26.40;63.50;;;;;;5017308;28;19960;-69
2022/05/09 10:34:15;;;;;;;;;;;26.80;63.90;;;;;;5051944;28;19920;-70
2022/05/09 10:36:55;;;;;;;;;;;26.60;60.50;;;;;;5047245;28;20451;-70
2022/05/09 10:39:26;;;;;;;;;;;26.70;60.30;;;;;;5013552;28;20000;-70
2022/05/09 10:42:00;;;;;;;;;;;26.60;61.60;;;;;;5027185;28;19927;-70
2022/05/09 10:44:39;;;;;;;;;;;26.60;61.60;;;;;;5055538;28;19935;-70
2022/05/09 10:47:25;;;;;;;;;;;26.70;60.30;;;;;;5028873;28;19929;-70
2022/05/09 10:49:54;;;;;;;;;;;27.00;59.40;;;;;;5034119;28;19921;-69
2022/05/09 10:52:41;;;;;;;;;;;26.60;59.10;;;;;;5016715;28;19924;-68
2022/05/09 10:55:32;;;;;;;;;;;26.90;59.30;;;;;;5015551;28;19921;-68
2022/05/09 10:58:08;;;;;;;;;;;26.90;57.70;;;;;;5021908;28;19947;-70
2022/05/09 11:00:35;;;;;;;;;;;26.50;58.40;;;;;;5033002;28;20039;-69
2022/05/09 11:03:19;;;;;;;;;;;26.40;58.70;;;;;;5028535;28;19928;-68
2022/05/09 11:06:04;;;;;;;;;;;26.30;58.60;;;;;;5037092;28;20045;-69
2022/05/09 11:08:39;;;;;;;;;;;26.40;57.20;;;;;;5028040;28;19921;-74
2022/05/09 11:11:16;;;;;;;;;;;25.90;58.10;;;;;;5017411;28;19968;-72
2022/05/09 11:14:04;;;;;;;;;;;25.50;57.50;;;;;;5033990;28;19927;-71
2022/05/09 11:17:11;;;;;;;;;;;25.70;61.20;;;;;;5035800;28;19943;-71
2022/05/09 11:19:46;;;;;;;;;;;26.20;59.80;;;;;;5013594;28;19933;-73
2022/05/09 11:22:35;;;;;;;;;;;26.40;56.90;;;;;;4995717;28;19922;-73
2022/05/09 11:25:20;;;;;;;;;;;26.30;57.80;;;;;;5021702;28;19970;-73
2022/05/09 11:28:05;;;;;;;;;;;26.30;59.00;;;;;;5037190;28;19931;-73
2022/05/09 11:30:34;;;;;;;;;;;26.50;56.90;;;;;;5053669;28;20389;-74
2022/05/09 11:33:15;;;;;;;;;;;26.70;58.50;;;;;;5055030;28;19920;-73
2022/05/09 11:35:44;;;;;;;;;;;27.00;56.90;;;;;;5054289;28;20016;-74
2022/05/09 11:38:26;;;;;;;;;;;26.70;57.00;;;;;;5053152;28;20419;-74
2022/05/09 11:41:04;;;;;;;;;;;26.70;56.60;;;;;;5033105;28;20330;-73
2022/05/09 11:43:49;;;;;;;;;;;26.60;55.10;;;;;;5031101;28;19979;-73
2022/05/09 11:46:19;;;;;;;;;;;26.10;56.90;;;;;;5015853;28;19924;-73
2022/05/09 11:49:00;;;;;;;;;;;26.00;58.00;;;;;;5034497;28;19921;-73
2022/05/09 11:51:48;;;;;;;;;;;26.20;59.90;;;;;;5014894;28;19921;-72
2022/05/09 11:54:27;;;;;;;;;;;26.20;57.50;;;;;;5035173;28;19921;-73
2022/05/09 11:56:53;;;;;;;;;;;26.00;56.00;;;;;;5054462;28;20326;-72
2022/05/09 11:59:23;;;;;;;;;;;25.80;56.10;;;;;;5034569;28;20351;-72
2022/05/09 12:01:55;;;;;;;;;;;26.00;57.10;;;;;;5026334;28;20395;-71
2022/05/09 12:04:39;;;;;;;;;;;26.40;57.60;;;;;;5030536;28;20304;-72
2022/05/09 12:07:24;;;;;;;;;;;26.30;56.10;;;;;;5023533;28;20301;-72
2022/05/09 12:10:03;;;;;;;;;;;26.10;57.40;;;;;;5018571;28;20300;-71
2022/05/09 12:12:38;;;;;;;;;;;26.20;57.70;;;;;;5025064;28;19921;-72
2022/05/09 12:15:07;;;;;;;;;;;26.30;58.40;;;;;;5025508;28;19937;-72
2022/05/09 12:17:34;;;;;;;;;;;26.50;57.40;;;;;;5028370;28;20019;-73
2022/05/09 12:20:09;;;;;;;;;;;26.30;56.10;;;;;;5053954;28;19932;-73
2022/05/09 12:22:34;;;;;;;;;;;26.40;55.10;;;;;;5045600;28;19964;-72
2022/05/09 12:25:01;;;;;;;;;;;25.90;56.30;;;;;;5025760;28;19972;-72
2022/05/09 12:27:52;;;;;;;;;;;26.10;55.90;;;;;;5041971;28;20380;-72
2022/05/09 12:32:53;;;;;;;;;;;25.70;56.70;;;;;;3313470;26;20047;-72
2022/05/09 12:35:28;;;;;;;;;;;25.50;56.60;;;;;;5017403;28;19976;-72
2022/05/09 12:37:54;;;;;;;;;;;25.70;54.60;;;;;;5033227;28;19921;-71
2022/05/09 12:40:21;;;;;;;;;;;25.20;55.20;;;;;;5034188;28;19928;-72
2022/05/09 12:42:48;;;;;;;;;;;25.10;55.90;;;;;;5032123;28;19929;-72
2022/05/09 12:45:18;;;;;;;;;;;24.90;58.30;;;;;;5024791;28;19928;-76
2022/05/09 12:47:47;;;;;;;;;;;25.00;56.30;;;;;;5023749;28;19924;-75
2022/05/09 12:50:21;;;;;;;;;;;25.10;56.00;;;;;;5034395;28;19921;-76
2022/05/09 12:52:51;;;;;;;;;;;25.00;56.90;;;;;;5028111;28;19949;-74
2022/05/09 12:58:19;;;;;;;;;;;25.00;55.50;;;;;;5014118;28;19927;-75
2022/05/09 13:00:54;;;;;;;;;;;24.90;55.20;;;;;;5022664;28;19921;-79
2022/05/09 13:03:23;;;;;;;;;;;24.60;57.60;;;;;;5015492;28;19923;-74
2022/05/09 13:05:54;;;;;;;;;;;24.60;56.30;;;;;;5032241;28;19921;-73
2022/05/09 13:08:25;;;;;;;;;;;24.40;55.50;;;;;;5031511;28;19917;-74
2022/05/09 13:10:58;;;;;;;;;;;24.20;54.90;;;;;;5032384;28;19983;-71
2022/05/09 13:13:25;;;;;;;;;;;24.30;55.70;;;;;;5016358;28;20024;-71
2022/05/09 13:15:51;;;;;;;;;;;24.50;57.70;;;;;;5035753;28;20303;-70
2022/05/09 13:18:19;;;;;;;;;;;24.50;59.20;;;;;;5035979;28;19929;-69
2022/05/09 13:20:49;;;;;;;;;;;24.60;60.10;;;;;;5036626;28;20395;-68
2022/05/09 13:23:23;;;;;;;;;;;24.70;55.90;;;;;;5034335;28;19921;-69
2022/05/09 13:25:50;;;;;;;;;;;24.90;57.90;;;;;;5036789;28;19920;-72
2022/05/09 13:28:22;;;;;;;;;;;25.10;56.00;;;;;;5015796;28;20347;-70
2022/05/09 13:30:49;;;;;;;;;;;25.00;55.80;;;;;;5036867;28;20004;-70
2022/05/09 13:33:19;;;;;;;;;;;24.70;56.90;;;;;;5021385;28;19924;-71
2022/05/09 13:35:49;;;;;;;;;;;24.40;56.10;;;;;;5034545;28;19971;-73
2022/05/09 13:38:25;;;;;;;;;;;24.50;57.90;;;;;;5018341;28;20418;-73
2022/05/09 13:40:53;;;;;;;;;;;24.50;56.90;;;;;;5037491;28;19925;-74
2022/05/09 13:43:26;;;;;;;;;;;24.80;56.40;;;;;;5019261;28;20400;-77
2022/05/09 13:46:11;;;;;;;;;;;25.10;54.80;;;;;;5036476;28;20012;-76
2022/05/09 13:48:37;;;;;;;;;;;24.90;54.80;;;;;;5035978;28;20542;-72
2022/05/09 13:51:03;;;;;;;;;;;24.50;56.80;;;;;;5035687;28;19948;-74
2022/05/09 13:53:31;;;;;;;;;;;24.50;57.00;;;;;;5018993;28;20319;-74
2022/05/09 13:55:58;;;;;;;;;;;24.60;55.00;;;;;;5055147;23;19942;-74
2022/05/09 13:58:25;;;;;;;;;;;24.50;55.80;;;;;;5073982;28;20039;-73
2022/05/09 14:00:52;;;;;;;;;;;24.90;57.00;;;;;;5066385;28;19968;-72
2022/05/09 14:03:38;;;;;;;;;;;24.50;56.20;;;;;;5074498;28;19920;-73
2022/05/09 14:06:11;;;;;;;;;;;24.40;57.30;;;;;;5069460;28;19924;-71
2022/05/09 14:08:37;;;;;;;;;;;24.60;56.20;;;;;;5077417;28;20386;-70
2022/05/09 14:11:07;;;;;;;;;;;24.60;56.80;;;;;;5075319;28;20290;-72
2022/05/09 14:13:45;;;;;;;;;;;24.70;57.10;;;;;;5050206;28;20382;-70
2022/05/09 14:16:29;;;;;;;;;;;24.80;56.90;;;;;;5048240;28;19960;-72
2022/05/09 14:18:54;;;;;;;;;;;24.90;57.30;;;;;;5058743;28;19920;-72
2022/05/09 14:21:24;;;;;;;;;;;24.90;59.90;;;;;;5065607;28;19921;-73
2022/05/09 14:23:59;;;;;;;;;;;25.30;58.50;;;;;;5069464;28;19924;-72
2022/05/09 14:32:34;;;;;;;;;;;25.20;57.60;;;;;;5065301;28;19924;-74
2022/05/09 14:35:00;;;;;;;;;;;25.30;58.20;;;;;;5065217;28;19927;-71
2022/05/09 14:37:33;;;;;;;;;;;25.40;58.00;;;;;;5048720;28;19921;-72
2022/05/09 14:39:58;;;;;;;;;;;25.30;57.30;;;;;;5069152;28;19947;-71
2022/05/09 14:42:24;;;;;;;;;;;25.10;57.90;;;;;;5071559;28;19920;-74
2022/05/09 14:44:53;;;;;;;;;;;25.10;62.90;;;;;;5076648;28;19928;-73
2022/05/09 14:47:22;;;;;;;;;;;25.00;62.90;;;;;;5056394;28;19924;-74
2022/05/09 14:50:07;;;;;;;;;;;24.70;65.00;;;;;;5144331;22;19920;-74
2022/05/09 14:52:40;;;;;;;;;;;24.70;64.90;;;;;;5060037;28;19924;-74
2022/05/09 14:58:04;;;;;;;;;;;24.20;66.40;;;;;;5059908;28;19943;-73
2022/05/09 15:00:37;;;;;;;;;;;24.20;65.00;;;;;;5053410;28;19920;-71
2022/05/09 15:03:07;;;;;;;;;;;24.20;66.20;;;;;;5043130;28;20560;-72
2022/05/09 15:05:33;;;;;;;;;;;24.20;64.90;;;;;;5053816;28;19920;-71
2022/05/09 15:07:59;;;;;;;;;;;24.20;65.50;;;;;;5076335;28;19920;-72
2022/05/09 15:10:28;;;;;;;;;;;24.20;67.10;;;;;;5071091;28;19985;-73
2022/05/09 15:12:55;;;;;;;;;;;24.20;66.70;;;;;;5075516;28;19981;-72